Time;durP1;ratioP1;P1;durP2;ratioP2;P2;SDS_P1;SDS_P2;PMS_P1;PMS_P2;Temp;Humidity;BMP_temperature;BMP_pressure;BME280_temperature;BME280_humidity;BME280_pressure;Samples;Min_cycle;Max_cycle;Signal;HPM_P1;HPM_P2
2022/07/21 00:01:05;;;;;;;22.77;20.02;;;;;;;18.69;100.00;165457.31;5011882;28;20038;-62
2022/07/21 00:03:31;;;;;;;21.45;18.67;;;;;;;18.68;100.00;165453.28;5032162;28;20029;-62
2022/07/21 00:05:56;;;;;;;20.50;18.42;;;;;;;18.68;100.00;165453.28;5030742;28;20049;-62
2022/07/21 00:08:22;;;;;;;25.20;20.65;;;;;;;18.62;100.00;165438.34;5017722;28;20488;-62
2022/07/21 00:10:47;;;;;;;22.42;19.23;;;;;;;18.69;100.00;165457.31;5011803;28;20449;-62
2022/07/21 00:13:13;;;;;;;20.50;18.38;;;;;;;18.69;100.00;165457.31;5012465;28;20041;-62
2022/07/21 00:15:38;;;;;;;24.35;20.98;;;;;;;18.67;100.00;165451.88;5012430;28;20049;-62
2022/07/21 00:18:04;;;;;;;32.28;22.45;;;;;;;18.67;100.00;165451.88;5031760;28;20144;-61
2022/07/21 00:20:30;;;;;;;26.25;21.95;;;;;;;18.75;100.00;165470.88;5030814;28;20037;-61
2022/07/21 00:22:56;;;;;;;27.08;22.15;;;;;;;18.67;100.00;165451.88;5031951;28;20104;-61
2022/07/21 00:25:22;;;;;;;29.35;22.15;;;;;;;18.52;100.00;165411.19;5025107;28;20137;-60
2022/07/21 00:27:47;;;;;;;50.45;26.75;;;;;;;18.54;100.00;162160.56;5012439;28;20054;-60
2022/07/21 00:30:14;;;;;;;37.72;28.33;;;;;;;18.52;100.00;151825.13;5011562;28;20136;-62
2022/07/21 00:32:40;;;;;;;40.00;26.50;;;;;;;18.48;100.00;146107.22;5012768;28;20029;-62
2022/07/21 00:35:07;;;;;;;34.05;27.75;;;;;;;18.45;100.00;143250.31;5027334;28;20034;-62
2022/07/21 00:37:33;;;;;;;31.33;25.80;;;;;;;18.39;100.00;143593.66;5027327;28;20026;-63
2022/07/21 00:39:59;;;;;;;33.47;28.00;;;;;;;18.35;100.00;141803.59;5012571;28;20099;-62
2022/07/21 00:42:27;;;;;;;33.65;30.10;;;;;;;18.34;100.00;136819.47;5011050;28;20145;-62
2022/07/21 00:44:53;;;;;;;39.72;32.95;;;;;;;18.36;100.00;135757.09;5014596;28;20029;-62
2022/07/21 00:47:20;;;;;;;36.78;31.70;;;;;;;18.32;100.00;135392.75;5023023;28;20519;-63
2022/07/21 00:49:46;;;;;;;38.80;34.20;;;;;;;18.30;100.00;132900.72;5012604;28;20374;-62
2022/07/21 00:52:12;;;;;;;35.83;30.42;;;;;;;18.31;100.00;128996.69;5024642;28;20072;-62
2022/07/21 00:54:37;;;;;;;40.88;33.70;;;;;;;18.32;100.00;124741.69;5032140;28;20497;-62
2022/07/21 00:57:03;;;;;;;40.65;33.05;;;;;;;18.36;100.00;120496.78;5030605;28;20037;-62
2022/07/21 00:59:29;;;;;;;38.30;34.22;;;;;;;18.38;100.00;116604.97;5030948;28;20025;-62
2022/07/21 01:01:55;;;;;;;35.88;32.17;;;;;;;18.39;100.00;112009.50;5022858;28;20038;-62
2022/07/21 01:04:20;;;;;;;36.10;30.58;;;;;;;18.35;100.00;109881.88;5012151;28;20032;-62
2022/07/21 01:06:45;;;;;;;40.72;35.15;;;;;;;18.34;100.00;108113.97;5013822;28;20064;-62
2022/07/21 01:09:11;;;;;;;39.45;35.22;;;;;;;18.35;100.00;105644.41;5011961;28;20021;-62
2022/07/21 01:11:37;;;;;;;38.83;33.55;;;;;;;18.35;100.00;103527.31;5010996;28;20543;-62
2022/07/21 01:14:02;;;;;;;38.78;31.75;;;;;;;18.35;100.00;102468.34;5011828;28;20038;-62
2022/07/21 01:16:28;;;;;;;33.28;25.52;;;;;;;18.26;100.00;102101.69;5010185;28;20048;-63
2022/07/21 01:18:53;;;;;;;26.70;23.05;;;;;;;18.21;100.00;102798.59;5015249;28;20018;-63
2022/07/21 01:21:37;;;;;;;33.85;28.17;;;;;;;18.24;100.00;102099.22;5029788;28;20091;-61
2022/07/21 01:24:04;;;;;;;29.40;25.92;;;;;;;18.21;100.00;101036.75;5031532;28;20499;-62
2022/07/21 01:26:30;;;;;;;25.48;21.02;;;;;;;18.17;100.00;100325.41;5026324;28;20056;-63
2022/07/21 01:28:57;;;;;;;24.83;21.00;;;;;;;18.18;100.00;99269.25;5011689;28;20030;-62
2022/07/21 01:31:23;;;;;;;26.10;20.77;;;;;;;18.16;100.00;98913.75;5020138;28;20079;-62
2022/07/21 01:33:49;;;;;;;23.67;20.65;;;;;;;18.15;100.00;98559.94;5031724;28;20071;-63
2022/07/21 01:36:15;;;;;;;23.02;20.67;;;;;;;18.15;100.00;98208.56;5024606;28;20448;-63
2022/07/21 01:41:31;;;;;;;23.67;21.33;;;;;;;18.15;100.00;101379.44;5019327;28;20095;-64
2022/07/21 01:43:58;;;;;;;26.17;23.58;;;;;;;18.12;100.00;103136.25;5031158;28;20025;-64
2022/07/21 01:46:24;;;;;;;27.95;25.08;;;;;;;18.12;100.00;102431.16;5027213;28;20123;-64
2022/07/21 01:48:49;;;;;;;28.45;25.40;;;;;;;18.13;100.00;102785.34;5014007;28;20418;-61
2022/07/21 01:51:15;;;;;;;25.95;22.75;;;;;;;18.12;100.00;104195.00;5028224;28;20041;-62
2022/07/21 01:53:40;;;;;;;29.85;26.67;;;;;;;18.10;100.00;106307.34;5017502;28;20029;-62
2022/07/21 01:56:06;;;;;;;28.60;25.52;;;;;;;18.04;100.00;107356.50;5009918;28;20045;-64
2022/07/21 01:58:32;;;;;;;29.63;26.48;;;;;;;18.01;100.00;106999.28;5010982;28;20025;-63
2022/07/21 02:00:57;;;;;;;26.27;23.60;;;;;;;18.00;100.00;105232.78;5016163;28;20037;-64
2022/07/21 02:03:23;;;;;;;27.30;24.60;;;;;;;17.99;100.00;103116.25;5030734;28;20052;-64
2022/07/21 02:05:48;;;;;;;26.33;23.65;;;;;;;17.99;100.00;101705.63;5016256;28;20575;-63
2022/07/21 02:08:14;;;;;;;25.40;23.00;;;;;;;17.97;100.00;100998.44;5030808;28;20025;-64
2022/07/21 02:10:39;;;;;;;24.10;21.70;;;;;;;17.96;100.00;100996.81;5027733;28;20049;-64
2022/07/21 02:13:04;;;;;;;27.33;23.20;;;;;;;17.95;100.00;101346.66;5030506;28;20021;-63
2022/07/21 02:15:31;;;;;;;27.75;24.95;;;;;;;17.92;100.00;102048.09;5023970;28;20050;-63
2022/07/21 02:17:57;;;;;;;29.42;23.67;;;;;;;17.91;100.00;102398.00;5011356;28;20054;-63
2022/07/21 02:20:23;;;;;;;25.92;23.33;;;;;;;17.84;100.00;102386.44;5009070;28;20120;-63
2022/07/21 02:22:49;;;;;;;22.15;20.05;;;;;;;17.90;100.00;102044.00;5010989;28;20125;-63
2022/07/21 02:25:15;;;;;;;22.45;19.95;;;;;;;17.86;100.00;102742.16;5022247;28;20040;-63
2022/07/21 02:27:43;;;;;;;23.73;19.35;;;;;;;17.86;100.00;102742.16;5030382;28;20164;-63
2022/07/21 02:30:09;;;;;;;17.65;15.95;;;;;;;17.84;100.00;103091.22;5028395;28;20044;-63
2022/07/21 02:32:35;;;;;;;17.92;16.23;;;;;;;17.79;100.00;104493.63;5029789;28;20617;-63
2022/07/21 02:35:00;;;;;;;17.38;15.25;;;;;;;17.73;100.00;106246.28;5028975;28;20041;-64
2022/07/21 02:37:27;;;;;;;15.82;14.15;;;;;;;17.67;100.00;107294.84;5030497;28;20099;-64
2022/07/21 02:39:53;;;;;;;15.77;14.38;;;;;;;17.64;100.00;107288.75;5029444;28;20060;-64
2022/07/21 02:42:18;;;;;;;15.77;13.77;;;;;;;17.57;100.00;107630.13;5029953;28;20074;-64
2022/07/21 02:44:43;;;;;;;14.65;13.38;;;;;;;17.54;100.00;106567.94;5012473;28;20044;-64
2022/07/21 02:47:09;;;;;;;15.73;14.05;;;;;;;17.51;100.00;105504.41;5021675;28;20405;-64
2022/07/21 02:49:34;;;;;;;17.90;15.55;;;;;;;17.51;100.00;104094.81;5032869;28;20026;-64
2022/07/21 02:51:59;;;;;;;17.58;15.77;;;;;;;17.49;100.00;103386.88;5034508;28;20120;-64
2022/07/21 02:54:25;;;;;;;18.17;16.42;;;;;;;17.43;100.00;102321.97;5032765;28;20044;-64
2022/07/21 02:56:50;;;;;;;19.25;16.38;;;;;;;17.41;100.00;101261.59;5033244;28;20025;-67
2022/07/21 02:59:16;;;;;;;17.70;15.80;;;;;;;17.40;100.00;99501.00;5031979;28;20029;-62
2022/07/21 03:01:41;;;;;;;18.35;16.55;;;;;;;17.37;100.00;98792.53;5034157;28;20021;-62
2022/07/21 03:04:07;;;;;;;19.38;17.30;;;;;;;17.33;100.00;98082.66;5033568;28;20035;-62
2022/07/21 03:06:33;;;;;;;22.33;19.75;;;;;;;17.31;100.00;97376.16;5032663;28;20619;-62
2022/07/21 03:08:58;;;;;;;22.75;19.38;;;;;;;17.33;100.00;96676.06;5034019;28;20120;-62
2022/07/21 03:11:24;;;;;;;19.25;17.45;;;;;;;17.33;100.00;96323.72;5031404;28;20046;-62
2022/07/21 03:13:49;;;;;;;19.27;17.25;;;;;;;17.29;100.00;95615.25;5017820;28;20041;-62
2022/07/21 03:16:14;;;;;;;21.23;19.13;;;;;;;17.25;100.00;95609.06;5019932;28;20048;-62
2022/07/21 03:18:41;;;;;;;23.27;20.33;;;;;;;17.28;100.00;94910.84;5033678;28;20056;-61
2022/07/21 03:21:06;;;;;;;23.02;20.58;;;;;;;17.23;100.00;93849.94;5027678;28;20037;-62
2022/07/21 03:23:32;;;;;;;20.63;18.25;;;;;;;17.29;100.00;92804.41;5013800;28;20488;-62
2022/07/21 03:25:57;;;;;;;24.15;21.40;;;;;;;17.28;100.00;92100.53;5017701;28;20041;-62
2022/07/21 03:28:22;;;;;;;22.48;19.92;;;;;;;17.27;100.00;91747.91;5033631;28;20398;-62
2022/07/21 03:30:48;;;;;;;25.42;22.80;;;;;;;17.27;100.00;91396.78;5032272;28;20065;-63
2022/07/21 03:33:13;;;;;;;24.42;20.88;;;;;;;17.23;100.00;91040.56;5031463;28;20021;-63
2022/07/21 03:35:39;;;;;;;27.13;23.63;;;;;;;17.29;100.00;90346.53;5012597;28;20068;-63
2022/07/21 03:38:05;;;;;;;26.85;22.02;;;;;;;17.32;100.00;89648.88;5013794;28;20037;-63
2022/07/21 03:40:32;;;;;;;26.45;23.42;;;;;;;17.33;100.00;88948.44;5023906;28;20041;-61
2022/07/21 03:43:00;;;;;;;33.38;27.00;;;;;;;17.34;100.00;88248.06;5014071;28;20087;-61
2022/07/21 03:45:29;;;;;;;32.20;24.90;;;;;;;17.35;100.00;87547.81;5030760;28;20041;-63
2022/07/21 03:47:55;;;;;;;29.15;25.85;;;;;;;17.40;100.00;87203.34;5033077;28;20496;-63
2022/07/21 03:50:20;;;;;;;29.35;26.38;;;;;;;17.39;100.00;86501.06;5031514;28;20041;-63
2022/07/21 03:52:46;;;;;;;32.97;26.75;;;;;;;17.42;100.00;86154.50;5014602;28;20022;-62
2022/07/21 03:55:14;;;;;;;34.05;29.50;;;;;;;17.41;100.00;85802.41;5011420;28;20056;-62
2022/07/21 03:57:54;;;;;;;33.80;30.20;;;;;;;17.41;100.00;85802.41;5013464;28;20034;-62
2022/07/21 04:00:31;;;;;;;37.42;30.83;;;;;;;17.42;100.00;85803.81;5011643;28;20049;-62
2022/07/21 04:02:58;;;;;;;33.05;29.38;;;;;;;17.46;100.00;85457.25;5013073;28;20025;-63
2022/07/21 04:05:24;;;;;;;36.70;30.45;;;;;;;17.47;100.00;85458.59;5011825;28;20436;-63
2022/07/21 04:07:50;;;;;;;35.25;29.20;;;;;;;17.49;100.00;85812.06;5022219;28;20035;-62
2022/07/21 04:10:19;;;;;;;36.08;31.85;;;;;;;17.50;100.00;86164.19;5030973;28;20047;-68
2022/07/21 04:12:44;;;;;;;37.80;32.42;;;;;;;17.48;100.00;86512.91;5022500;28;20014;-58
2022/07/21 04:15:12;;;;;;;39.13;32.17;;;;;;;17.51;100.00;86516.38;5023810;28;20049;-58
2022/07/21 04:17:38;;;;;;;39.05;34.90;;;;;;;17.51;100.00;86516.38;5013920;28;20056;-57
2022/07/21 04:20:05;;;;;;;39.85;32.85;;;;;;;17.55;100.00;85821.03;5011645;28;20042;-58
2022/07/21 04:22:31;;;;;;;36.88;32.97;;;;;;;17.57;100.00;85472.31;5026418;28;20022;-58
2022/07/21 04:24:56;;;;;;;40.40;35.58;;;;;;;17.59;100.00;85125.00;5024476;28;20400;-58
2022/07/21 04:27:21;;;;;;;37.70;33.22;;;;;;;17.60;100.00;85125.69;5022042;28;20049;-58
2022/07/21 04:29:47;;;;;;;38.17;33.58;;;;;;;17.60;100.00;85125.69;5021083;28;20041;-58
2022/07/21 04:32:12;;;;;;;39.92;35.38;;;;;;;17.62;100.00;85829.97;5020557;28;20022;-58
2022/07/21 04:34:38;;;;;;;35.50;31.58;;;;;;;17.60;100.00;86879.75;5021043;28;20092;-59
2022/07/21 04:37:03;;;;;;;39.13;34.83;;;;;;;17.58;100.00;87578.78;5022036;28;20017;-58
2022/07/21 04:39:28;;;;;;;39.22;34.80;;;;;;;17.56;100.00;88277.88;5023806;28;20033;-58
2022/07/21 04:41:54;;;;;;;36.13;32.25;;;;;;;17.54;100.00;88626.75;5016490;28;20034;-58
2022/07/21 04:44:20;;;;;;;43.95;34.88;;;;;;;17.52;100.00;88272.91;5029920;28;20040;-58
2022/07/21 04:46:45;;;;;;;39.10;34.90;;;;;;;17.51;100.00;88270.78;5032221;28;20018;-58
2022/07/21 04:49:10;;;;;;;37.45;33.45;;;;;;;17.54;100.00;87573.13;5025921;28;20021;-58
2022/07/21 04:51:36;;;;;;;41.08;32.55;;;;;;;17.56;100.00;87575.94;5026921;28;20099;-59
2022/07/21 04:54:01;;;;;;;38.28;32.10;;;;;;;17.59;100.00;87229.25;5018955;28;20017;-58
2022/07/21 04:56:26;;;;;;;34.47;30.60;;;;;;;17.60;100.00;87582.28;5021249;28;20052;-58
2022/07/21 04:58:51;;;;;;;37.40;33.30;;;;;;;17.63;100.00;87234.84;5016869;28;20393;-58
2022/07/21 05:01:19;;;;;;;41.85;33.80;;;;;;;17.66;100.00;86888.13;5010955;28;20042;-58
2022/07/21 05:03:45;;;;;;;38.47;34.28;;;;;;;17.71;100.00;86544.16;5011551;28;20105;-58
2022/07/21 05:06:10;;;;;;;36.78;31.10;;;;;;;17.77;100.00;86201.56;5010938;28;20425;-58
2022/07/21 05:08:36;;;;;;;40.13;32.45;;;;;;;17.81;100.00;85503.91;5015907;28;20118;-57
2022/07/21 05:11:01;;;;;;;36.55;32.70;;;;;;;17.91;100.00;85166.69;5016434;28;20037;-57
2022/07/21 05:13:27;;;;;;;35.13;31.38;;;;;;;17.92;100.00;85519.69;5022309;28;20494;-58
2022/07/21 05:15:52;;;;;;;40.90;32.90;;;;;;;18.00;100.00;85178.34;5015280;28;20053;-58
2022/07/21 05:18:17;;;;;;;35.97;32.38;;;;;;;18.00;100.00;86232.03;5011518;28;20473;-58
2022/07/21 05:20:43;;;;;;;36.55;32.65;;;;;;;18.07;100.00;86592.84;5010657;28;20046;-58
2022/07/21 05:23:08;;;;;;;36.67;32.85;;;;;;;18.06;100.00;87644.94;5011798;28;20028;-58
2022/07/21 05:25:35;;;;;;;36.95;31.10;;;;;;;18.17;100.00;88011.00;5010100;28;20041;-57
2022/07/21 05:28:01;;;;;;;36.00;32.00;;;;;;;18.19;100.00;90473.09;5024086;28;20037;-58
2022/07/21 05:30:26;;;;;;;33.88;30.10;;;;;;;18.10;100.00;93976.28;5028361;28;20052;-58
2022/07/21 05:32:52;;;;;;;35.00;31.33;;;;;;;18.13;100.00;98557.56;5017775;28;20037;-57
2022/07/21 05:35:17;;;;;;;41.15;34.38;;;;;;;18.08;100.00;102778.69;5023636;28;20030;-58
2022/07/21 05:37:43;;;;;;;37.40;33.38;;;;;;;18.05;100.00;103478.84;5018026;28;20021;-58
2022/07/21 05:40:09;;;;;;;35.28;31.58;;;;;;;18.05;100.00;103831.44;5016272;28;20021;-58
2022/07/21 05:42:35;;;;;;;38.55;33.17;;;;;;;17.97;100.00;105933.97;5021343;28;20026;-57
2022/07/21 05:45:04;;;;;;;35.15;29.55;;;;;;;18.00;100.00;106996.69;5031248;28;20477;-58
2022/07/21 05:47:31;;;;;;;38.38;34.13;;;;;;;17.99;100.00;105583.78;5023875;28;20107;-57
2022/07/21 05:49:56;;;;;;;42.38;34.83;;;;;;;18.00;100.00;104175.63;5018577;28;20022;-57
2022/07/21 05:52:22;;;;;;;41.25;35.22;;;;;;;18.03;100.00;103475.50;5018637;28;20040;-58
2022/07/21 05:54:47;;;;;;;39.75;35.58;;;;;;;18.01;100.00;102414.59;5021408;28;20049;-58
2022/07/21 05:57:13;;;;;;;41.67;37.47;;;;;;;18.05;100.00;102067.91;5011495;28;20037;-57
2022/07/21 05:59:38;;;;;;;46.53;33.38;;;;;;;18.04;100.00;101362.25;5022840;28;20017;-57
2022/07/21 06:02:03;;;;;;;41.13;36.13;;;;;;;18.12;100.00;101726.16;5018322;28;20037;-58
2022/07/21 06:04:29;;;;;;;40.42;34.05;;;;;;;18.20;100.00;102091.81;5021736;28;20041;-57
2022/07/21 06:06:54;;;;;;;40.63;33.63;;;;;;;18.29;100.00;104575.56;5018888;28;20041;-58
2022/07/21 06:09:20;;;;;;;39.67;34.90;;;;;;;18.38;100.00;105296.56;5019926;28;20071;-57
2022/07/21 06:11:45;;;;;;;37.22;33.25;;;;;;;18.49;100.00;106725.78;5028020;28;20046;-58
2022/07/21 06:14:11;;;;;;;36.90;33.10;;;;;;;18.45;100.00;115909.41;5012135;28;20025;-57
2022/07/21 06:16:37;;;;;;;40.97;30.73;;;;;;;18.47;100.00;124060.81;5009652;28;20049;-58
2022/07/21 06:19:02;;;;;;;34.90;31.33;;;;;;;18.58;100.00;126565.34;5011224;28;20022;-58
2022/07/21 06:21:28;;;;;;;42.05;34.70;;;;;;;18.69;100.00;123041.09;5009793;28;20038;-58
2022/07/21 06:23:53;;;;;;;36.75;31.73;;;;;;;18.80;100.00;121288.97;5033180;28;20083;-58
2022/07/21 06:26:19;;;;;;;40.95;31.08;;;;;;;18.83;100.00;122358.72;5033255;28;20053;-58
2022/07/21 06:28:44;;;;;;;32.13;28.83;;;;;;;18.93;100.00;128412.16;5035021;28;20033;-58
2022/07/21 06:31:10;;;;;;;30.48;27.33;;;;;;;19.01;100.00;128783.09;5020966;28;20054;-58
2022/07/21 06:33:35;;;;;;;31.45;28.20;;;;;;;19.03;100.00;131276.34;5015400;28;20025;-58
2022/07/21 06:36:00;;;;;;;33.75;30.20;;;;;;;19.08;100.00;134486.22;5016187;28;20041;-61
2022/07/21 06:38:26;;;;;;;36.20;30.08;;;;;;;19.07;100.00;137331.69;5020164;28;20428;-61
2022/07/21 06:40:51;;;;;;;30.35;27.27;;;;;;;19.05;100.00;141245.81;5023128;28;20119;-61
2022/07/21 06:43:17;;;;;;;32.15;28.77;;;;;;;19.10;100.00;145180.00;5014645;28;20045;-61
2022/07/21 06:45:42;;;;;;;29.50;26.25;;;;;;;19.18;100.00;149482.97;5013807;28;20049;-61
2022/07/21 06:48:08;;;;;;;34.22;27.15;;;;;;;19.17;100.00;164509.41;5021338;28;20025;-61
2022/07/21 06:50:34;;;;;;;30.42;27.30;;;;;;;19.18;100.00;165586.22;5020781;28;20107;-61
2022/07/21 06:53:00;;;;;;;31.80;28.23;;;;;;;19.19;100.00;165587.56;5032443;28;20380;-61
2022/07/21 06:55:25;;;;;;;30.55;27.30;;;;;;;19.23;100.00;165598.44;5017296;28;20049;-61
2022/07/21 06:57:50;;;;;;;33.70;28.17;;;;;;;19.14;100.00;165574.03;5018721;28;20562;-61
2022/07/21 07:00:16;;;;;;;36.90;29.77;;;;;;;19.25;100.00;165602.50;5019295;28;20405;-61
2022/07/21 07:02:42;;;;;;;33.47;27.23;;;;;;;19.32;100.00;164504.97;5019191;28;20021;-61
2022/07/21 07:05:07;;;;;;;32.05;28.88;;;;;;;19.40;100.00;165641.88;5030050;28;20121;-61
2022/07/21 07:07:33;;;;;;;31.10;27.85;;;;;;;19.47;100.00;165660.88;5016746;28;20030;-61
2022/07/21 07:09:59;;;;;;;32.65;29.25;;;;;;;19.51;100.00;165671.69;5012976;28;20041;-61
2022/07/21 07:12:25;;;;;;;35.13;31.42;;;;;;;19.50;100.00;165668.97;5022762;28;20030;-61
2022/07/21 07:14:50;;;;;;;34.60;30.98;;;;;;;19.53;100.00;165677.13;5012282;28;20042;-61
2022/07/21 07:17:20;;;;;;;31.30;28.17;;;;;;;19.66;100.00;165712.41;5015902;28;20752;-61
2022/07/21 07:19:47;;;;;;;34.25;30.35;;;;;;;19.74;100.00;165731.41;5028702;28;20075;-61
2022/07/21 07:22:12;;;;;;;32.15;29.02;;;;;;;19.75;100.00;165735.47;5028969;28;20097;-61
2022/07/21 07:24:38;;;;;;;31.33;28.23;;;;;;;19.80;100.00;165747.69;5010962;28;20046;-61
2022/07/21 07:27:03;;;;;;;34.53;30.40;;;;;;;19.85;100.00;165761.28;5013214;28;20046;-61
2022/07/21 07:29:29;;;;;;;33.78;30.17;;;;;;;19.77;100.00;165739.56;5011930;28;20042;-61
2022/07/21 07:31:55;;;;;;;37.10;30.38;;;;;;;19.75;100.00;165734.13;5012601;28;20022;-61
2022/07/21 07:34:21;;;;;;;33.47;30.20;;;;;;;19.73;100.00;165728.69;5012382;28;20030;-61
2022/07/21 07:36:46;;;;;;;30.88;27.85;;;;;;;19.79;100.00;165746.34;5016401;28;20021;-61
2022/07/21 07:39:12;;;;;;;38.92;32.85;;;;;;;19.87;100.00;165766.72;5031436;28;20389;-61
2022/07/21 07:41:37;;;;;;;33.40;29.80;;;;;;;19.80;100.00;165747.69;5026099;28;20033;-61
2022/07/21 07:44:03;;;;;;;43.85;28.98;;;;;;;19.80;100.00;165747.69;5013055;28;20033;-61
2022/07/21 07:46:28;;;;;;;35.88;31.23;;;;;;;19.66;100.00;165712.41;5025339;28;20124;-61
2022/07/21 07:48:53;;;;;;;38.78;31.27;;;;;;;19.59;100.00;165693.41;5013404;28;20109;-61
2022/07/21 07:51:19;;;;;;;36.22;31.65;;;;;;;19.48;100.00;165663.53;5011406;28;20054;-61
2022/07/21 07:53:44;;;;;;;48.88;31.42;;;;;;;19.42;100.00;165647.25;5018290;28;20437;-61
2022/07/21 07:56:09;;;;;;;41.83;33.97;;;;;;;19.38;100.00;165636.44;5028357;28;20123;-61
2022/07/21 07:58:35;;;;;;;44.92;35.40;;;;;;;19.33;100.00;165625.56;5031346;28;20356;-61
2022/07/21 08:01:01;;;;;;;43.45;34.15;;;;;;;19.34;100.00;165628.28;5018522;28;20041;-61
2022/07/21 08:03:27;;;;;;;40.55;33.05;;;;;;;19.32;100.00;165622.84;5032343;28;20060;-61
2022/07/21 08:05:54;;;;;;;39.47;35.17;;;;;;;19.24;100.00;165599.78;5019468;28;20401;-61
2022/07/21 08:08:21;;;;;;;46.20;37.78;;;;;;;19.15;100.00;165576.75;5016065;28;20036;-61
2022/07/21 08:10:46;;;;;;;41.13;34.55;;;;;;;19.07;100.00;165555.03;5014539;28;20040;-58
2022/07/21 08:13:13;;;;;;;44.75;36.55;;;;;;;18.97;100.00;165529.28;5031618;28;20029;-58
2022/07/21 08:15:39;;;;;;;53.78;40.78;;;;;;;18.88;100.00;165506.13;5023490;28;20405;-58
2022/07/21 08:18:06;;;;;;;52.35;43.30;;;;;;;18.85;100.00;165498.00;5012672;28;20049;-58
2022/07/21 08:20:33;;;;;;;53.13;41.22;;;;;;;18.74;100.00;165468.16;5029439;28;20571;-58
2022/07/21 08:22:58;;;;;;;54.83;42.30;;;;;;;18.68;100.00;165454.59;5030897;28;20102;-58
2022/07/21 08:25:24;;;;;;;45.50;38.78;;;;;;;18.64;100.00;165443.78;5030537;28;20041;-58
2022/07/21 08:27:49;;;;;;;48.67;41.35;;;;;;;18.60;100.00;165432.91;5022046;28;20053;-58
2022/07/21 08:30:14;;;;;;;54.50;44.45;;;;;;;18.71;100.00;164455.16;5009660;28;20087;-58
2022/07/21 08:32:40;;;;;;;48.25;43.00;;;;;;;18.80;100.00;158326.44;5012378;28;20048;-58
2022/07/21 08:35:08;;;;;;;50.70;44.05;;;;;;;18.89;100.00;159065.38;5028628;28;20149;-58
2022/07/21 08:37:38;;;;;;;53.72;42.33;;;;;;;19.03;100.00;156954.81;5030067;28;20079;-58
2022/07/21 08:40:06;;;;;;;51.33;42.35;;;;;;;19.16;100.00;165579.47;5021041;28;20556;-58
2022/07/21 08:42:32;;;;;;;51.22;45.20;;;;;;;19.30;100.00;165616.06;5023754;28;20029;-58
2022/07/21 08:44:57;;;;;;;51.30;43.00;;;;;;;19.57;100.00;165687.97;5011223;28;20045;-58
2022/07/21 08:47:24;;;;;;;48.10;42.95;;;;;;;20.04;100.00;165810.16;5011913;28;20422;-58
2022/07/21 08:49:50;;;;;;;42.53;38.03;;;;;;;20.18;100.00;165848.16;5011649;28;20049;-58
2022/07/21 08:52:15;;;;;;;42.95;35.15;;;;;;;20.21;100.00;165856.31;5018508;28;20373;-58
2022/07/21 08:54:41;;;;;;;41.53;36.90;;;;;;;20.11;100.00;165829.16;5026892;28;20053;-58
2022/07/21 08:57:06;;;;;;;42.75;36.13;;;;;;;20.08;100.00;165821.00;5016781;28;20072;-59
2022/07/21 08:59:31;;;;;;;39.38;35.60;;;;;;;19.99;100.00;165797.94;5021617;28;20120;-58
2022/07/21 09:01:58;;;;;;;39.58;35.53;;;;;;;19.90;100.00;165774.88;5021134;28;20040;-58
2022/07/21 09:04:29;;;;;;;37.17;33.33;;;;;;;19.85;100.00;165761.28;5012729;28;20119;-59
2022/07/21 09:06:58;;;;;;;36.50;32.78;;;;;;;19.96;100.00;165789.78;5011950;28;20619;-59
2022/07/21 09:09:26;;;;;;;36.83;33.22;;;;;;;20.15;100.00;165838.66;5015704;28;20120;-58
2022/07/21 09:11:51;;;;;;;39.08;31.92;;;;;;;20.43;100.00;165913.34;5030358;28;20028;-59
2022/07/21 09:14:21;;;;;;;41.95;28.40;;;;;;;20.81;100.00;166012.47;5028970;28;20105;-57
2022/07/21 09:16:50;;;;;;;36.63;24.02;;;;;;;21.33;100.00;166149.63;5024188;28;20485;-58
2022/07/21 09:19:18;;;;;;;22.77;20.40;;;;;;;22.08;100.00;166347.97;5025096;28;20481;-58
2022/07/21 09:21:44;;;;;;;18.73;16.77;;;;;;;22.55;100.00;166470.31;5019219;28;20096;-58
2022/07/21 09:24:22;;;;;;;18.90;16.90;;;;;;;22.86;100.00;166551.88;5020101;28;20436;-59
2022/07/21 09:26:59;;;;;;;16.42;14.73;;;;;;;23.18;100.00;166636.19;5024527;28;20509;-59
2022/07/21 09:29:24;;;;;;;16.33;14.63;;;;;;;23.50;100.00;166720.44;5024913;28;20094;-59
2022/07/21 09:31:51;;;;;;;14.50;13.10;;;;;;;23.83;100.00;166807.50;5027868;28;20505;-59
2022/07/21 09:34:17;;;;;;;18.52;14.27;;;;;;;24.05;100.00;166867.38;5011343;28;20037;-60
2022/07/21 09:36:57;;;;;;;15.90;14.32;;;;;;;24.01;100.00;166855.13;5027485;28;20040;-60
2022/07/21 09:39:47;;;;;;;19.52;15.50;;;;;;;23.67;100.00;166766.69;5011413;28;20068;-59
2022/07/21 09:42:17;;;;;;;15.18;13.60;;;;;;;23.54;100.00;166732.69;5011086;28;20480;-59
2022/07/21 09:44:46;;;;;;;19.80;15.32;;;;;;;23.75;100.00;166788.44;5021544;28;20037;-59
2022/07/21 09:47:14;;;;;;;15.73;14.32;;;;;;;24.05;100.00;166866.03;5031335;28;20033;-59
2022/07/21 09:49:41;;;;;;;17.05;11.57;;;;;;;23.82;100.00;166804.75;5029107;28;20045;-59
2022/07/21 09:52:26;;;;;;;14.55;11.60;;;;;;;23.50;100.00;166720.44;5030001;28;20473;-59
2022/07/21 09:54:53;;;;;;;15.20;13.57;;;;;;;23.42;100.00;166701.41;5026452;28;20041;-59
2022/07/21 09:57:19;;;;;;;14.25;12.85;;;;;;;23.32;100.00;166674.25;5010927;28;20386;-59
2022/07/21 09:59:46;;;;;;;14.73;13.27;;;;;;;23.25;100.00;166656.56;5014726;28;20041;-59
2022/07/21 10:02:22;;;;;;;21.55;16.13;;;;;;;23.31;100.00;166671.53;5016001;28;20032;-59
2022/07/21 10:04:56;;;;;;;17.00;15.00;;;;;;;23.34;100.00;166679.72;5011001;28;20038;-59
2022/07/21 10:07:22;;;;;;;15.80;12.95;;;;;;;23.20;100.00;166643.00;5015858;28;21716;-59
2022/07/21 10:09:48;;;;;;;17.45;13.88;;;;;;;23.24;100.00;166653.84;5011575;28;20037;-59
2022/07/21 10:12:15;;;;;;;21.20;12.80;;;;;;;23.28;100.00;166663.34;5019874;28;20030;-59
2022/07/21 10:14:41;;;;;;;24.33;12.50;;;;;;;23.33;100.00;166676.97;5029181;28;20037;-59
2022/07/21 10:17:07;;;;;;;20.42;14.15;;;;;;;23.18;100.00;166636.19;5030781;28;20025;-59
2022/07/21 10:19:42;;;;;;;18.10;13.73;;;;;;;23.12;100.00;166622.53;5015874;28;20084;-59
2022/07/21 10:22:28;;;;;;;15.80;14.23;;;;;;;23.18;100.00;166636.19;5011756;28;20021;-59
2022/07/21 10:24:54;;;;;;;18.30;14.77;;;;;;;23.12;100.00;166622.53;5009710;28;20045;-60
2022/07/21 10:27:20;;;;;;;21.75;14.75;;;;;;;22.91;100.00;166566.81;5010417;28;20045;-59
2022/07/21 10:29:48;;;;;;;16.77;15.07;;;;;;;22.69;100.00;166508.34;5009807;28;20073;-59
2022/07/21 10:32:18;;;;;;;17.60;14.93;;;;;;;22.46;100.00;166448.56;5010941;28;20026;-59
2022/07/21 10:34:44;;;;;;;20.13;16.20;;;;;;;22.31;100.00;166407.75;5022876;28;20044;-60
2022/07/21 10:37:10;;;;;;;26.58;17.27;;;;;;;22.21;100.00;166381.94;5018001;28;20033;-59
2022/07/21 10:39:36;;;;;;;21.45;16.05;;;;;;;22.23;100.00;166386.06;5011953;28;20026;-59
2022/07/21 10:42:15;;;;;;;18.92;16.83;;;;;;;22.28;100.00;166399.63;5015997;28;20034;-59
2022/07/21 10:44:43;;;;;;;19.00;13.82;;;;;;;22.38;100.00;166426.75;5009432;28;20034;-59
2022/07/21 10:47:20;;;;;;;15.93;14.05;;;;;;;22.25;100.00;166392.84;5011308;28;20037;-60
2022/07/21 10:49:57;;;;;;;19.35;15.20;;;;;;;22.03;100.00;166335.78;5018597;28;20037;-59
2022/07/21 10:52:34;;;;;;;17.55;13.82;;;;;;;21.85;100.00;166288.25;5028363;28;20044;-58
2022/07/21 10:55:28;;;;;;;19.38;15.45;;;;;;;21.87;100.00;166293.63;5029272;28;20057;-60
2022/07/21 10:58:14;;;;;;;15.68;14.00;;;;;;;21.96;100.00;166315.38;5012454;28;20610;-59
2022/07/21 11:00:44;;;;;;;16.23;14.40;;;;;;;21.94;100.00;166309.94;5019719;28;20520;-58
2022/07/21 11:03:15;;;;;;;23.05;16.10;;;;;;;21.97;100.00;166318.09;5017842;28;20396;-59
2022/07/21 11:06:07;;;;;;;18.38;15.93;;;;;;;22.04;100.00;166337.13;5027250;28;20045;-58